Ardooie, Belgium
Current Conditions -  °F | °C
As of 11:50 PM on Thursday 18 Dec 2014 (Local Time) from EBOS Reporting Station
Broken Clouds Broken Clouds  
Wind Chill: 54°   Ceiling: 1200
Heat Index: 54°   Visibility: 6mi
Dew Point: 52°   Wind: 23mph
Humidity: 94%   Direction: 240°WSW
Pressure: 29.91"   Gusts: 39mph
Location:  50.98°N, 3.2°E
Report Text: EBOS 182250Z 24020G34KT 9999 FEW009 BKN012 12/11 Q1013 TEMPO BKN008
Loading
Personal Weather Stations






























Interactive Weather Map New forecast layout! Learn more

10-Day Weather Forecast

Advertisements
Track Severe Weather on mobile